createdAt,value
2017-06-28T14:45:34.554Z,230
2017-06-28T14:46:33.013Z,195
2017-06-28T14:47:32.387Z,195
2017-06-28T14:48:33.011Z,200
2017-06-28T14:49:33.007Z,205
2017-06-28T14:50:34.301Z,210
2017-06-28T14:51:32.384Z,235
2017-06-28T14:52:32.728Z,255
2017-06-28T14:53:33.037Z,245
2017-06-28T14:54:32.764Z,235
2017-06-28T14:55:33.045Z,225
2017-06-28T14:56:33.057Z,220
2017-06-28T14:57:32.742Z,220
2017-06-28T14:58:32.747Z,220
2017-06-28T14:59:33.065Z,220
2017-06-28T15:00:33.580Z,225
2017-06-28T15:01:32.137Z,225
2017-06-28T15:02:33.085Z,220
2017-06-28T15:03:32.773Z,220
2017-06-28T15:04:32.791Z,215
2017-06-28T15:05:32.788Z,210
2017-06-28T15:06:32.798Z,185
2017-06-28T15:07:33.124Z,205
2017-06-28T15:08:33.148Z,210
2017-06-28T15:09:33.139Z,210
2017-06-28T15:10:33.146Z,205
2017-06-28T15:11:33.149Z,205
2017-06-28T15:12:32.838Z,210
2017-06-28T15:13:33.181Z,210
2017-06-28T15:14:32.885Z,175
2017-06-28T15:15:35.124Z,170
2017-06-28T15:16:32.869Z,170
2017-06-28T15:17:33.197Z,175
2017-06-28T15:18:32.608Z,175
2017-06-28T15:19:32.914Z,200
2017-06-28T15:20:33.210Z,195
2017-06-28T15:21:32.918Z,195
2017-06-28T15:22:33.309Z,195
2017-06-28T15:23:33.226Z,195
2017-06-28T15:24:35.154Z,195
2017-06-28T15:25:33.240Z,200
2017-06-28T15:26:32.977Z,200
2017-06-28T15:27:33.262Z,200
2017-06-28T15:28:32.966Z,205
2017-06-28T15:29:32.991Z,210
2017-06-28T15:30:32.973Z,210
2017-06-28T15:31:33.400Z,215
2017-06-28T15:32:33.288Z,210
2017-06-28T15:33:33.291Z,210
2017-06-28T15:34:32.987Z,210
2017-06-28T15:35:32.692Z,215
2017-06-28T15:36:33.317Z,220
2017-06-28T15:37:33.022Z,210
2017-06-28T15:38:33.337Z,230
2017-06-28T15:39:33.354Z,230
2017-06-28T15:40:32.726Z,200
2017-06-28T15:41:33.069Z,230
2017-06-28T15:42:33.372Z,225
2017-06-28T15:43:32.449Z,225
2017-06-28T15:44:33.452Z,230
2017-06-28T15:45:32.756Z,240
2017-06-28T15:46:34.369Z,245
2017-06-28T15:47:33.392Z,245
2017-06-28T15:48:33.103Z,245
2017-06-28T15:49:32.787Z,245
2017-06-28T15:50:32.816Z,215
2017-06-28T15:51:33.516Z,205
2017-06-28T15:52:32.853Z,200
2017-06-28T15:53:33.434Z,200
2017-06-28T15:54:32.829Z,200
2017-06-28T15:55:33.465Z,210
2017-06-28T15:56:32.513Z,210
2017-06-28T15:57:32.835Z,225
2017-06-28T15:58:32.291Z,230
2017-06-28T15:59:33.165Z,230
2017-06-28T16:00:32.854Z,225
2017-06-28T16:01:32.969Z,245
2017-06-28T16:02:33.494Z,260
2017-06-28T16:03:33.235Z,265
2017-06-28T16:04:33.532Z,260
2017-06-28T16:05:32.598Z,260
2017-06-28T16:06:33.222Z,255
2017-06-28T16:07:33.218Z,245
2017-06-28T16:08:33.245Z,245
2017-06-28T16:09:33.256Z,235
2017-06-28T16:10:33.234Z,235
2017-06-28T16:11:33.246Z,240
2017-06-28T16:12:33.274Z,245
2017-06-28T16:13:32.947Z,260
2017-06-28T16:14:33.272Z,255
2017-06-28T16:15:33.273Z,250
2017-06-28T16:16:33.535Z,245
2017-06-28T16:17:33.608Z,235
2017-06-28T16:18:33.639Z,225
2017-06-28T16:19:33.636Z,210
2017-06-28T16:20:33.665Z,200
2017-06-28T16:21:33.330Z,195
2017-06-28T16:22:33.361Z,195
2017-06-28T16:23:33.663Z,190
2017-06-28T16:24:33.337Z,185
2017-06-28T16:25:33.355Z,180
2017-06-28T16:26:33.672Z,185
2017-06-28T16:27:33.715Z,180
2017-06-28T16:28:33.381Z,180
2017-06-28T16:29:33.379Z,180
2017-06-28T16:30:33.401Z,180
2017-06-28T16:31:33.805Z,180
2017-06-28T16:32:33.733Z,185
2017-06-28T16:33:33.777Z,190
2017-06-28T16:34:33.720Z,185
2017-06-28T16:35:33.446Z,185
2017-06-28T16:36:33.514Z,180
2017-06-28T16:37:32.826Z,175
2017-06-28T16:38:33.779Z,180
2017-06-28T16:39:33.197Z,170
2017-06-28T16:40:33.776Z,170
2017-06-28T16:41:33.785Z,165
2017-06-28T16:42:33.485Z,170
2017-06-28T16:43:33.858Z,165
2017-06-28T16:44:32.574Z,165
2017-06-28T16:45:33.207Z,165
2017-06-28T16:46:34.395Z,160
2017-06-28T16:47:33.557Z,155
2017-06-28T16:48:33.235Z,155
2017-06-28T16:49:33.613Z,160
2017-06-28T16:50:33.891Z,155
2017-06-28T16:51:33.566Z,155
2017-06-28T16:52:33.256Z,155
2017-06-28T16:53:33.887Z,150
2017-06-28T16:54:33.888Z,150
2017-06-28T16:55:33.590Z,150
2017-06-28T16:56:33.680Z,150
2017-06-28T16:57:33.674Z,165
2017-06-28T16:58:33.695Z,165
2017-06-28T16:59:33.332Z,160
2017-06-28T17:00:33.781Z,160
2017-06-28T17:01:34.008Z,160
2017-06-28T17:02:33.470Z,160
2017-06-28T17:03:33.774Z,160
2017-06-28T17:04:59.053Z,175
2017-06-28T17:05:34.050Z,175
2017-06-28T17:06:33.710Z,185
2017-06-28T17:07:33.388Z,190
2017-06-28T17:08:33.997Z,195
2017-06-28T17:09:33.426Z,205
2017-06-28T17:10:33.726Z,210
2017-06-28T17:11:33.093Z,205
2017-06-28T17:12:33.753Z,205
2017-06-28T17:13:33.774Z,200
2017-06-28T17:14:34.098Z,195
2017-06-28T17:15:33.797Z,195
2017-06-28T17:16:34.058Z,195
2017-06-28T17:17:33.786Z,195
2017-06-28T17:18:34.101Z,195
2017-06-28T17:19:34.091Z,190
2017-06-28T17:20:33.481Z,190
2017-06-28T17:21:34.084Z,185
2017-06-28T17:22:34.167Z,185
2017-06-28T17:23:33.482Z,180
2017-06-28T17:24:33.503Z,180
2017-06-28T17:25:33.857Z,170
2017-06-28T17:26:34.226Z,165
2017-06-28T17:27:33.812Z,150
2017-06-28T17:28:34.205Z,140
2017-06-28T17:29:34.189Z,135
2017-06-28T17:30:33.893Z,125
2017-06-28T17:31:34.171Z,125
2017-06-28T17:32:34.205Z,115
2017-06-28T17:33:34.314Z,110
2017-06-28T17:34:33.882Z,105
2017-06-28T17:35:34.250Z,105
2017-06-28T17:36:34.252Z,100
2017-06-28T17:37:33.575Z,95
2017-06-28T17:38:34.165Z,95
2017-06-28T17:39:34.192Z,95
2017-06-28T17:40:33.563Z,95
2017-06-28T17:41:33.895Z,90
2017-06-28T17:42:34.248Z,95
2017-06-28T17:43:34.191Z,95
2017-06-28T17:44:33.615Z,95
2017-06-28T17:45:33.559Z,90
2017-06-28T17:46:33.891Z,90
2017-06-28T17:47:36.381Z,90
2017-06-28T17:48:34.265Z,85
2017-06-28T17:49:33.960Z,85
2017-06-28T17:50:33.907Z,80
2017-06-28T17:51:34.302Z,80
2017-06-28T17:52:33.933Z,75
2017-06-28T17:53:34.556Z,75
2017-06-28T17:54:34.228Z,70
2017-06-28T17:55:34.473Z,70
2017-06-28T17:56:33.831Z,70
2017-06-28T17:57:33.848Z,70
2017-06-28T17:58:34.430Z,75
2017-06-28T17:59:34.573Z,75
2017-06-28T18:00:33.920Z,80
2017-06-28T18:01:34.224Z,80
2017-06-28T18:02:34.941Z,80
2017-06-28T18:03:34.066Z,80
2017-06-28T18:04:34.446Z,75
2017-06-28T18:05:34.349Z,75
2017-06-28T18:06:33.708Z,75
2017-06-28T18:07:34.339Z,80
2017-06-28T18:08:34.257Z,75
2017-06-28T18:09:33.788Z,75
2017-06-28T18:10:33.516Z,75
2017-06-28T18:11:34.184Z,75
2017-06-28T18:12:34.451Z,75
2017-06-28T18:13:34.492Z,75
2017-06-28T18:14:34.847Z,75
2017-06-28T18:15:34.378Z,75
2017-06-28T18:16:34.393Z,75
2017-06-28T18:17:38.198Z,75
2017-06-28T18:18:34.447Z,75
2017-06-28T18:19:34.540Z,70
2017-06-28T18:20:34.266Z,70
2017-06-28T18:21:34.594Z,70
2017-06-28T18:22:33.995Z,70
2017-06-28T18:23:34.618Z,70
2017-06-28T18:24:34.251Z,65
2017-06-28T18:25:34.577Z,65
2017-06-28T18:26:33.926Z,65
2017-06-28T18:27:35.283Z,65
2017-06-28T18:28:34.306Z,65
2017-06-28T18:29:34.239Z,60
2017-06-28T18:30:33.574Z,60
2017-06-28T18:31:34.522Z,60
2017-06-28T18:32:34.527Z,60
2017-06-28T18:33:34.259Z,55
2017-06-28T18:34:33.932Z,55
2017-06-28T18:35:34.538Z,55
2017-06-28T18:36:33.613Z,55
2017-06-28T18:37:34.568Z,55
2017-06-28T18:38:34.271Z,50
2017-06-28T18:39:34.591Z,50
2017-06-28T18:40:34.293Z,50
2017-06-28T18:41:34.262Z,50
2017-06-28T18:42:34.542Z,45
2017-06-28T18:43:34.572Z,45
2017-06-28T18:44:34.274Z,40
2017-06-28T18:45:34.381Z,40
2017-06-28T18:46:34.604Z,40
2017-06-28T18:47:33.988Z,35
2017-06-28T18:48:35.167Z,35
2017-06-28T18:49:34.735Z,35
2017-06-28T18:50:34.395Z,35
2017-06-28T18:51:34.667Z,30
2017-06-28T18:52:34.651Z,30
2017-06-28T18:53:34.736Z,30
2017-06-28T18:54:33.735Z,25
2017-06-28T18:55:34.412Z,25
2017-06-28T18:56:34.036Z,25
2017-06-28T18:57:34.099Z,25
2017-06-28T18:58:34.754Z,20
2017-06-28T18:59:34.701Z,20
2017-06-28T19:00:34.666Z,20
2017-06-28T19:01:34.354Z,20
2017-06-28T19:02:34.728Z,15
2017-06-28T19:03:34.471Z,15
2017-06-28T19:04:34.696Z,15
2017-06-28T19:05:34.802Z,15
2017-06-28T19:06:34.852Z,15
2017-06-28T19:07:34.708Z,10
2017-06-28T19:08:34.756Z,10
2017-06-28T19:09:34.763Z,10
2017-06-28T19:10:34.752Z,10
2017-06-28T19:11:34.390Z,15
2017-06-28T19:12:34.706Z,15
2017-06-28T19:13:34.380Z,15
2017-06-28T19:14:34.484Z,10
2017-06-28T19:15:34.686Z,10
2017-06-28T19:16:34.424Z,10
2017-06-28T19:17:34.403Z,5
2017-06-28T19:18:35.840Z,5
2017-06-28T19:19:34.755Z,5
2017-06-28T19:20:34.790Z,5
2017-06-28T19:21:34.743Z,5
2017-06-28T19:22:34.751Z,5
2017-06-28T19:23:34.747Z,5
2017-06-28T19:24:34.417Z,5
2017-06-28T19:25:34.824Z,5
2017-06-28T19:26:34.779Z,5
2017-06-28T19:27:34.425Z,5
2017-06-28T19:28:34.763Z,5
2017-06-28T19:29:34.816Z,5
2017-06-28T19:30:34.494Z,5
2017-06-28T19:31:34.830Z,0
2017-06-28T19:32:34.469Z,0
2017-06-28T19:33:34.540Z,0
2017-06-28T19:34:34.803Z,0
2017-06-28T19:35:35.026Z,0
2017-06-28T19:36:34.227Z,0
2017-06-28T19:37:34.545Z,0
2017-06-28T19:38:36.177Z,0
2017-06-28T19:39:34.810Z,0
2017-06-28T19:40:34.890Z,0
2017-06-28T19:41:34.833Z,0
2017-06-28T19:42:34.537Z,0
2017-06-28T19:43:34.846Z,0
2017-06-28T19:44:34.512Z,0
2017-06-28T19:45:34.942Z,0
2017-06-28T19:46:34.876Z,0
2017-06-28T19:47:34.862Z,0
2017-06-28T19:48:34.901Z,0
2017-06-28T19:49:36.940Z,0
2017-06-28T19:50:34.587Z,0
2017-06-28T19:51:34.235Z,0
2017-06-28T19:52:34.542Z,0
2017-06-28T19:53:34.865Z,0
2017-06-28T19:54:34.899Z,0
2017-06-28T19:55:34.867Z,0
2017-06-28T19:56:34.898Z,0
2017-06-28T19:57:34.577Z,0
2017-06-28T19:58:34.268Z,0
2017-06-28T19:59:34.895Z,0
2017-06-28T20:00:34.894Z,0
2017-06-28T20:01:34.579Z,0
2017-06-28T20:02:34.897Z,0
2017-06-28T20:03:34.900Z,0
2017-06-28T20:04:34.950Z,0
2017-06-28T20:05:34.942Z,0
2017-06-28T20:06:34.628Z,0
2017-06-28T20:07:34.594Z,0
2017-06-28T20:08:34.636Z,0
2017-06-28T20:09:34.950Z,0
2017-06-28T20:10:34.921Z,0
2017-06-28T20:11:35.278Z,0
2017-06-28T20:12:35.039Z,0
2017-06-28T20:13:34.703Z,0
2017-06-28T20:14:34.963Z,0
2017-06-28T20:15:35.010Z,0
2017-06-28T20:16:34.311Z,0
2017-06-28T20:17:34.709Z,0
2017-06-28T20:18:34.949Z,0
2017-06-28T20:19:39.363Z,0
2017-06-28T20:20:35.003Z,0
2017-06-28T20:21:34.980Z,0
2017-06-28T20:22:34.690Z,0
2017-06-28T20:23:34.700Z,0
2017-06-28T20:24:34.660Z,0
2017-06-28T20:25:34.650Z,0
2017-06-28T20:26:34.665Z,0
2017-06-28T20:27:34.687Z,0
2017-06-28T20:28:34.671Z,0
2017-06-28T20:29:34.992Z,0
2017-06-28T20:30:35.026Z,0
2017-06-28T20:31:34.667Z,0
2017-06-28T20:32:34.998Z,0
2017-06-28T20:33:35.247Z,0
2017-06-28T20:34:35.056Z,0
2017-06-28T20:35:34.679Z,0
2017-06-28T20:36:34.998Z,0
2017-06-28T20:37:34.999Z,0
2017-06-28T20:38:34.705Z,0
2017-06-28T20:39:34.774Z,0
2017-06-28T20:40:34.716Z,0
2017-06-28T20:41:34.717Z,0
2017-06-28T20:42:34.720Z,0
2017-06-28T20:43:34.729Z,0
2017-06-28T20:44:34.465Z,0
2017-06-28T20:45:34.715Z,0
2017-06-28T20:46:34.722Z,0
2017-06-28T20:47:35.035Z,0
2017-06-28T20:48:34.725Z,0
2017-06-28T20:49:37.472Z,0
2017-06-28T20:50:34.729Z,0
2017-06-28T20:51:35.042Z,0
2017-06-28T20:52:34.746Z,0
2017-06-28T20:53:35.086Z,0
2017-06-28T20:54:35.052Z,0
2017-06-28T20:55:34.752Z,0
2017-06-28T20:56:34.431Z,0
